createdAt,value
2018-06-28T00:01:18.037Z,1.50
2018-06-28T00:03:46.454Z,1.30
2018-06-28T00:06:14.118Z,1.73
2018-06-28T00:08:41.912Z,1.53
2018-06-28T00:11:09.542Z,1.60
2018-06-28T00:13:37.257Z,1.73
2018-06-28T00:16:04.970Z,1.40
2018-06-28T00:18:32.678Z,1.50
2018-06-28T00:21:00.397Z,1.40
2018-06-28T00:23:28.045Z,1.50
2018-06-28T00:25:55.734Z,1.70
2018-06-28T00:28:23.445Z,1.60
2018-06-28T00:30:51.262Z,1.60
2018-06-28T00:33:18.881Z,1.50
2018-06-28T00:35:46.577Z,1.70
2018-06-28T00:38:14.276Z,1.60
2018-06-28T00:40:41.874Z,1.73
2018-06-28T00:43:09.474Z,1.53
2018-06-28T00:45:37.195Z,1.30
2018-06-28T00:48:05.237Z,1.50
2018-06-28T00:50:32.910Z,1.40
2018-06-28T00:53:00.625Z,1.43
2018-06-28T00:55:28.287Z,2.00
2018-06-28T00:57:55.988Z,2.03
2018-06-28T01:00:23.647Z,2.27
2018-06-28T01:02:51.373Z,1.70
2018-06-28T01:05:19.020Z,1.60
2018-06-28T01:07:46.684Z,1.57
2018-06-28T01:10:14.413Z,1.40
2018-06-28T01:12:42.030Z,1.77
2018-06-28T01:15:09.761Z,1.60
2018-06-28T01:17:37.456Z,2.30
2018-06-28T01:20:05.473Z,1.63
2018-06-28T01:22:33.333Z,1.80
2018-06-28T01:25:00.979Z,1.33
2018-06-28T01:27:33.680Z,1.60
2018-06-28T01:30:01.342Z,1.57
2018-06-28T01:32:28.965Z,1.73
2018-06-28T01:34:56.617Z,1.60
2018-06-28T01:37:24.342Z,1.87
2018-06-28T01:39:51.956Z,1.50
2018-06-28T01:43:38.641Z,1.40
2018-06-28T01:46:06.411Z,1.43
2018-06-28T01:48:34.097Z,1.60
2018-06-28T01:51:01.749Z,1.67
2018-06-28T01:53:29.419Z,1.90
2018-06-28T01:55:57.173Z,1.90
2018-06-28T01:58:24.897Z,1.77
2018-06-28T02:00:52.588Z,1.70
2018-06-28T02:03:20.193Z,1.87
2018-06-28T02:05:49.280Z,1.43
2018-06-28T02:08:17.330Z,1.73
2018-06-28T02:10:44.981Z,1.53
2018-06-28T02:13:12.689Z,1.87
2018-06-28T02:15:40.299Z,1.93
2018-06-28T02:18:08.613Z,1.90
2018-06-28T02:20:36.756Z,1.70
2018-06-28T02:23:04.401Z,1.90
2018-06-28T02:25:32.102Z,1.90
2018-06-28T02:27:59.741Z,1.97
2018-06-28T02:30:27.415Z,1.87
2018-06-28T02:32:55.097Z,1.90
2018-06-28T02:35:22.757Z,1.80
2018-06-28T02:37:50.540Z,1.93
2018-06-28T02:40:18.184Z,1.90
2018-06-28T02:42:45.830Z,1.70
2018-06-28T02:45:13.465Z,2.13
2018-06-28T02:47:41.128Z,2.10
2018-06-28T02:50:08.786Z,2.30
2018-06-28T02:52:36.415Z,2.17
2018-06-28T02:55:04.229Z,1.80
2018-06-28T02:57:31.894Z,2.03
2018-06-28T02:59:59.544Z,1.97
2018-06-28T03:02:27.191Z,2.00
2018-06-28T03:04:55.031Z,1.80
2018-06-28T03:07:22.683Z,2.30
2018-06-28T03:09:50.637Z,1.80
2018-06-28T03:12:18.498Z,1.87
2018-06-28T03:14:46.143Z,2.10
2018-06-28T03:17:13.784Z,1.87
2018-06-28T03:19:41.401Z,2.00
2018-06-28T03:22:09.106Z,2.10
2018-06-28T03:24:36.737Z,2.23
2018-06-28T03:27:04.406Z,2.10
2018-06-28T03:29:32.043Z,2.07
2018-06-28T03:31:59.617Z,2.00
2018-06-28T03:34:27.242Z,1.93
2018-06-28T03:36:54.992Z,2.20
2018-06-28T03:39:22.637Z,2.13
2018-06-28T03:41:50.466Z,2.07
2018-06-28T03:44:18.107Z,2.13
2018-06-28T03:46:45.799Z,2.00
2018-06-28T03:49:13.443Z,1.90
2018-06-28T03:51:41.080Z,1.90
2018-06-28T03:54:08.993Z,2.07
2018-06-28T03:56:37.257Z,1.77
2018-06-28T03:59:04.933Z,2.00
2018-06-28T04:01:33.486Z,2.27
2018-06-28T04:04:01.131Z,1.90
2018-06-28T04:06:29.030Z,2.10
2018-06-28T04:08:56.643Z,2.00
2018-06-28T04:11:24.223Z,2.13
2018-06-28T04:13:51.860Z,1.90
2018-06-28T04:16:19.531Z,1.80
2018-06-28T04:18:47.142Z,2.10
2018-06-28T04:21:14.804Z,2.10
2018-06-28T04:23:42.465Z,2.03
2018-06-28T04:26:10.145Z,2.20
2018-06-28T04:28:37.892Z,2.07
2018-06-28T04:31:05.533Z,2.40
2018-06-28T04:33:33.319Z,2.00
2018-06-28T04:36:01.392Z,2.30
2018-06-28T04:38:29.081Z,2.10
2018-06-28T04:40:56.869Z,2.17
2018-06-28T04:43:24.960Z,1.77
2018-06-28T04:45:52.826Z,2.10
2018-06-28T04:48:20.484Z,2.20
2018-06-28T04:50:49.276Z,1.90
2018-06-28T04:53:17.059Z,1.90
2018-06-28T04:55:44.706Z,2.23
2018-06-28T04:58:12.440Z,2.10
2018-06-28T05:00:40.502Z,2.00
2018-06-28T05:03:08.773Z,2.10
2018-06-28T05:05:36.729Z,2.00
2018-06-28T05:08:04.469Z,2.00
2018-06-28T05:10:32.188Z,2.40
2018-06-28T05:12:59.873Z,2.10
2018-06-28T05:15:27.645Z,2.23
2018-06-28T05:17:55.110Z,1.77
2018-06-28T05:20:22.771Z,2.37
2018-06-28T05:22:50.392Z,2.10
2018-06-28T05:25:18.129Z,2.40
2018-06-28T05:27:45.883Z,2.60
2018-06-28T05:30:13.513Z,2.20
2018-06-28T05:32:41.117Z,2.30
2018-06-28T05:35:08.777Z,2.33
2018-06-28T05:37:36.470Z,2.33
2018-06-28T05:40:04.138Z,2.07
2018-06-28T05:42:31.883Z,2.20
2018-06-28T05:44:59.724Z,2.03
2018-06-28T05:47:27.341Z,2.43
2018-06-28T05:49:55.042Z,2.13
2018-06-28T05:52:22.686Z,2.20
2018-06-28T05:54:50.368Z,2.67
2018-06-28T05:57:18.305Z,2.53
2018-06-28T05:59:45.943Z,2.70
2018-06-28T06:02:13.796Z,2.53
2018-06-28T06:04:41.475Z,2.20
2018-06-28T06:07:09.103Z,2.57
2018-06-28T06:09:36.755Z,2.17
2018-06-28T06:12:04.406Z,2.10
2018-06-28T06:14:32.024Z,2.50
2018-06-28T06:16:59.711Z,2.13
2018-06-28T06:19:27.414Z,2.40
2018-06-28T06:21:55.021Z,2.47
2018-06-28T06:24:22.836Z,2.40
2018-06-28T06:26:50.481Z,2.33
2018-06-28T06:29:18.220Z,2.30
2018-06-28T06:31:45.834Z,2.27
2018-06-28T06:34:14.349Z,2.70
2018-06-28T06:36:42.089Z,2.00
2018-06-28T06:39:11.082Z,1.90
2018-06-28T06:41:38.786Z,2.33
2018-06-28T06:44:06.833Z,2.20
2018-06-28T06:46:34.905Z,2.10
2018-06-28T06:49:02.580Z,2.27
2018-06-28T06:51:30.917Z,2.07
2018-06-28T06:53:58.622Z,2.20
2018-06-28T06:56:26.421Z,2.60
2018-06-28T06:58:54.263Z,2.43
2018-06-28T07:01:21.878Z,1.83
2018-06-28T07:03:49.513Z,1.97
2018-06-28T07:06:17.732Z,2.03
2018-06-28T07:08:45.373Z,1.93
2018-06-28T07:11:13.382Z,1.90
2018-06-28T07:13:41.161Z,1.97
2018-06-28T07:16:08.960Z,2.10
2018-06-28T07:18:37.035Z,2.00
2018-06-28T07:21:04.831Z,1.90
2018-06-28T07:23:32.494Z,1.90
2018-06-28T07:26:00.229Z,2.13
2018-06-28T07:28:28.057Z,1.90
2018-06-28T07:30:55.672Z,2.00
2018-06-28T07:33:24.415Z,1.90
2018-06-28T07:35:52.112Z,2.00
2018-06-28T07:38:19.793Z,1.60
2018-06-28T07:40:47.452Z,1.77
2018-06-28T07:43:15.056Z,1.80
2018-06-28T07:45:42.754Z,2.00
2018-06-28T07:48:10.432Z,1.47
2018-06-28T07:50:38.141Z,2.00
2018-06-28T07:53:05.810Z,1.70
2018-06-28T07:55:33.535Z,1.80
2018-06-28T07:58:01.197Z,1.80
2018-06-28T08:00:28.861Z,1.50
2018-06-28T08:02:56.496Z,1.47
2018-06-28T08:05:24.078Z,1.73
2018-06-28T08:07:51.806Z,1.77
2018-06-28T08:10:19.442Z,1.50
2018-06-28T08:12:47.054Z,1.80
2018-06-28T08:15:14.961Z,1.43
2018-06-28T08:17:42.616Z,1.70
2018-06-28T08:20:10.211Z,1.50
2018-06-28T08:22:37.874Z,1.53
2018-06-28T08:25:05.613Z,1.50
2018-06-28T08:27:33.525Z,1.60
2018-06-28T08:30:01.361Z,1.47
2018-06-28T08:32:28.966Z,1.57
2018-06-28T08:34:56.571Z,1.60
2018-06-28T08:37:24.261Z,2.10
2018-06-28T08:39:51.905Z,1.90
2018-06-28T08:42:19.574Z,1.53
2018-06-28T08:44:47.213Z,1.80
2018-06-28T08:47:14.835Z,1.60
2018-06-28T08:49:42.511Z,1.27
2018-06-28T08:52:10.179Z,1.50
2018-06-28T08:54:37.822Z,1.53
2018-06-28T08:57:05.498Z,1.37
2018-06-28T08:59:33.132Z,1.47
2018-06-28T09:02:00.821Z,1.50
2018-06-28T09:04:28.464Z,1.70
2018-06-28T09:06:56.103Z,1.40
2018-06-28T09:09:23.673Z,1.60
2018-06-28T09:11:51.305Z,1.30
2018-06-28T09:14:19.042Z,1.77
2018-06-28T09:16:46.701Z,1.33
2018-06-28T09:19:14.396Z,1.17
2018-06-28T09:21:42.081Z,1.30
2018-06-28T09:24:09.744Z,1.50
2018-06-28T09:26:37.425Z,1.40
2018-06-28T09:29:05.131Z,1.50
2018-06-28T09:31:32.802Z,1.33
2018-06-28T09:34:01.017Z,1.47
2018-06-28T09:36:28.716Z,1.63
2018-06-28T09:38:56.391Z,1.40
2018-06-28T09:41:24.018Z,1.20
2018-06-28T09:43:51.663Z,1.30
2018-06-28T09:46:19.411Z,1.57
2018-06-28T09:48:47.076Z,1.47
2018-06-28T09:51:14.760Z,1.53
2018-06-28T09:53:42.378Z,1.40
2018-06-28T09:56:10.026Z,1.70
2018-06-28T09:58:37.722Z,1.40
2018-06-28T10:01:05.392Z,1.50
2018-06-28T10:03:33.028Z,1.30
2018-06-28T10:06:00.617Z,1.50
2018-06-28T10:08:28.261Z,1.47
2018-06-28T10:10:55.904Z,1.70
2018-06-28T10:13:23.496Z,1.50
2018-06-28T10:15:51.162Z,1.77
2018-06-28T10:18:18.785Z,1.60
2018-06-28T10:20:46.448Z,1.43
2018-06-28T10:23:14.068Z,1.43
2018-06-28T10:25:41.726Z,1.60
2018-06-28T10:28:09.316Z,1.23
2018-06-28T10:30:37.015Z,1.60
2018-06-28T10:33:04.674Z,1.30
2018-06-28T10:35:32.279Z,1.30
2018-06-28T10:37:59.857Z,1.50
2018-06-28T10:40:27.499Z,1.33
2018-06-28T10:42:55.180Z,1.60
2018-06-28T10:45:22.861Z,1.53
2018-06-28T10:47:50.509Z,1.60
2018-06-28T10:50:18.157Z,1.47
2018-06-28T10:52:45.828Z,1.70
2018-06-28T10:55:13.438Z,1.37
2018-06-28T10:57:41.174Z,1.60
2018-06-28T11:00:08.822Z,1.40
2018-06-28T11:02:36.547Z,1.57
2018-06-28T11:05:04.756Z,1.50
2018-06-28T11:07:32.437Z,1.30
2018-06-28T11:10:00.132Z,1.50
2018-06-28T11:12:27.794Z,1.43
2018-06-28T11:14:55.761Z,1.50
2018-06-28T11:17:23.488Z,1.40
2018-06-28T11:19:51.201Z,1.40
2018-06-28T11:22:18.874Z,1.43
2018-06-28T11:24:46.483Z,1.27
2018-06-28T11:27:14.115Z,1.47
2018-06-28T11:29:41.721Z,1.40
2018-06-28T11:32:09.410Z,1.77
2018-06-28T11:34:37.191Z,1.40
2018-06-28T11:37:05.190Z,1.50
2018-06-28T11:39:32.781Z,1.30
2018-06-28T11:42:00.429Z,1.30
2018-06-28T11:44:28.136Z,1.37
2018-06-28T11:46:55.842Z,1.43
2018-06-28T11:49:23.592Z,1.37
2018-06-28T11:51:51.372Z,1.33
2018-06-28T11:54:19.050Z,1.57
2018-06-28T11:56:46.752Z,1.40
2018-06-28T11:59:14.397Z,1.37
2018-06-28T12:01:42.197Z,1.43
2018-06-28T12:04:09.828Z,1.50
2018-06-28T12:06:37.424Z,1.50
2018-06-28T12:09:08.035Z,1.50
2018-06-28T12:11:35.737Z,1.50
2018-06-28T12:14:03.534Z,1.33
2018-06-28T12:16:31.161Z,1.40
2018-06-28T12:18:58.877Z,1.40
2018-06-28T12:21:26.520Z,1.40
2018-06-28T12:23:54.143Z,1.20
2018-06-28T12:26:21.849Z,1.03
2018-06-28T12:28:49.496Z,1.37
2018-06-28T12:31:17.166Z,1.60
2018-06-28T12:33:44.840Z,1.23
2018-06-28T12:36:12.541Z,1.37
2018-06-28T12:38:40.194Z,1.37
2018-06-28T12:41:07.794Z,1.50
2018-06-28T12:43:35.461Z,1.30
2018-06-28T12:48:41.737Z,1.47
2018-06-28T12:51:09.417Z,1.40
2018-06-28T12:53:37.248Z,1.40
2018-06-28T12:56:37.172Z,1.50
2018-06-28T12:59:06.335Z,1.23
2018-06-28T13:01:34.021Z,1.40
2018-06-28T13:04:01.634Z,1.60
2018-06-28T13:06:29.312Z,1.53
2018-06-28T13:08:57.545Z,1.23
2018-06-28T13:11:25.723Z,1.60
2018-06-28T13:13:53.630Z,1.50
2018-06-28T13:16:22.348Z,1.20
2018-06-28T13:18:50.050Z,1.37
2018-06-28T13:21:17.669Z,1.23
2018-06-28T13:23:45.299Z,1.40
2018-06-28T13:26:14.141Z,1.07
2018-06-28T13:28:42.441Z,1.17
2018-06-28T13:31:10.046Z,1.43
2018-06-28T13:33:38.019Z,1.40
2018-06-28T13:36:05.623Z,1.13
2018-06-28T13:38:33.216Z,1.20
2018-06-28T13:41:01.124Z,1.00
2018-06-28T13:43:28.704Z,1.00
2018-06-28T13:45:56.361Z,1.20
2018-06-28T13:48:24.051Z,1.23
2018-06-28T13:50:52.121Z,1.27
2018-06-28T13:53:19.949Z,1.10
2018-06-28T13:55:47.592Z,1.10
2018-06-28T13:58:15.277Z,1.30
2018-06-28T14:00:42.893Z,1.23
2018-06-28T14:03:10.617Z,1.03
2018-06-28T14:05:38.773Z,0.90
2018-06-28T14:08:06.412Z,1.10
2018-06-28T14:10:34.087Z,1.30
2018-06-28T14:13:01.734Z,1.20
2018-06-28T14:15:29.360Z,1.20
2018-06-28T14:17:56.994Z,1.43
2018-06-28T14:20:24.664Z,1.30
2018-06-28T14:22:52.360Z,1.20
2018-06-28T14:25:19.965Z,1.40
2018-06-28T14:27:48.181Z,1.03
2018-06-28T14:30:15.798Z,1.20
2018-06-28T14:32:43.973Z,1.07
2018-06-28T14:35:11.851Z,0.87
2018-06-28T14:37:39.520Z,1.00
2018-06-28T14:40:07.930Z,1.13
2018-06-28T14:42:35.605Z,1.10
2018-06-28T14:45:03.615Z,1.10
2018-06-28T14:47:31.200Z,1.10
2018-06-28T14:49:58.778Z,1.40
2018-06-28T14:52:26.564Z,1.10
2018-06-28T14:54:54.165Z,1.03
2018-06-28T14:57:21.778Z,1.03
2018-06-28T14:59:49.680Z,1.10
2018-06-28T15:02:17.285Z,1.00
2018-06-28T15:04:44.929Z,1.20
2018-06-28T15:07:12.548Z,1.40
2018-06-28T15:09:40.274Z,1.20
2018-06-28T15:12:07.899Z,1.30
2018-06-28T15:14:35.611Z,1.30
2018-06-28T15:17:03.250Z,1.17
2018-06-28T15:19:30.948Z,1.30
2018-06-28T15:21:58.576Z,1.30
2018-06-28T15:24:26.349Z,1.30
2018-06-28T15:26:54.005Z,1.23
2018-06-28T15:29:21.740Z,1.67
2018-06-28T15:31:50.284Z,1.43
2018-06-28T15:34:18.027Z,1.57
2018-06-28T15:36:45.761Z,1.20
2018-06-28T15:39:13.391Z,1.20
2018-06-28T15:41:41.013Z,1.40
2018-06-28T15:44:08.653Z,1.80
2018-06-28T15:46:36.389Z,1.50
2018-06-28T15:49:04.056Z,1.40
2018-06-28T15:51:31.769Z,1.40
2018-06-28T15:53:59.877Z,1.63
2018-06-28T15:56:27.505Z,2.10
2018-06-28T15:58:55.089Z,2.70
2018-06-28T16:01:23.015Z,2.90
2018-06-28T16:03:50.605Z,3.10
2018-06-28T16:06:18.512Z,1.90
2018-06-28T16:08:46.212Z,1.70
2018-06-28T16:11:13.964Z,1.40
2018-06-28T16:13:41.552Z,1.80
2018-06-28T16:16:09.180Z,1.67
2018-06-28T16:18:37.346Z,1.90
2018-06-28T16:21:05.569Z,1.47
2018-06-28T16:23:33.342Z,1.70
2018-06-28T16:26:00.948Z,1.73
2018-06-28T16:28:28.631Z,1.93
2018-06-28T16:30:56.295Z,1.70
2018-06-28T16:33:24.014Z,1.77
2018-06-28T16:35:51.669Z,1.40
2018-06-28T16:38:19.334Z,1.60
2018-06-28T16:40:47.272Z,1.53
2018-06-28T16:43:15.328Z,1.50
2018-06-28T16:45:43.009Z,1.50
2018-06-28T16:48:10.608Z,1.80
2018-06-28T16:50:38.365Z,1.77
2018-06-28T16:53:06.130Z,1.93
2018-06-28T16:55:33.696Z,2.63
2018-06-28T16:58:01.345Z,2.37
2018-06-28T17:00:28.991Z,2.60
2018-06-28T17:02:56.683Z,2.27
2018-06-28T17:05:24.365Z,2.17
2018-06-28T17:07:52.195Z,1.87
2018-06-28T17:10:20.064Z,2.30
2018-06-28T17:12:47.693Z,2.10
2018-06-28T17:15:15.332Z,1.87
2018-06-28T17:17:43.239Z,1.97
2018-06-28T17:20:11.125Z,2.10
2018-06-28T17:22:38.777Z,1.90
2018-06-28T17:25:06.565Z,2.20
2018-06-28T17:27:34.237Z,1.67
2018-06-28T17:30:01.917Z,1.77
2018-06-28T17:32:29.537Z,2.13
2018-06-28T17:34:57.232Z,2.00
2018-06-28T17:37:24.938Z,1.80
2018-06-28T17:39:52.905Z,1.90
2018-06-28T17:42:20.602Z,1.77
2018-06-28T17:44:48.309Z,2.10
2018-06-28T17:47:16.053Z,1.70
2018-06-28T17:49:43.785Z,2.03
2018-06-28T17:52:11.411Z,2.20
2018-06-28T17:54:39.163Z,2.13
2018-06-28T17:57:06.871Z,2.20
2018-06-28T17:59:35.436Z,2.17
2018-06-28T18:02:03.192Z,2.20
2018-06-28T18:04:30.876Z,2.20
2018-06-28T18:06:59.253Z,2.37
2018-06-28T18:09:26.868Z,2.50
2018-06-28T18:11:54.608Z,2.80
2018-06-28T18:14:22.482Z,2.80
2018-06-28T18:16:50.429Z,2.63
2018-06-28T18:19:18.318Z,2.40
2018-06-28T18:21:53.196Z,2.50
2018-06-28T18:24:20.834Z,2.13
2018-06-28T18:26:48.593Z,2.27
2018-06-28T18:29:16.325Z,2.10
2018-06-28T18:31:44.049Z,2.30
2018-06-28T18:34:11.709Z,2.40
2018-06-28T18:36:39.453Z,2.50
2018-06-28T18:39:09.013Z,2.50
2018-06-28T18:41:37.423Z,2.50
2018-06-28T18:44:05.291Z,2.40
2018-06-28T18:46:33.143Z,2.50
2018-06-28T18:49:00.905Z,2.97
2018-06-28T18:51:28.838Z,2.60
2018-06-28T18:53:56.693Z,2.27
2018-06-28T18:56:24.500Z,2.53
2018-06-28T18:58:52.323Z,2.70
2018-06-28T19:01:20.029Z,2.53
2018-06-28T19:03:47.786Z,2.43
2018-06-28T19:06:15.428Z,2.13
2018-06-28T19:08:43.093Z,2.40
2018-06-28T19:11:10.780Z,2.50
2018-06-28T19:13:44.122Z,2.30
2018-06-28T19:16:17.624Z,2.47
2018-06-28T19:18:45.364Z,2.27
2018-06-28T19:21:18.738Z,2.47
2018-06-28T19:23:49.563Z,2.40
2018-06-28T19:26:17.835Z,2.23
2018-06-28T19:28:46.066Z,2.00
2018-06-28T19:31:19.449Z,2.27
2018-06-28T19:33:47.189Z,2.60
2018-06-28T19:36:14.899Z,2.10
2018-06-28T19:38:48.281Z,2.30
2018-06-28T19:41:21.848Z,2.43
2018-06-28T19:43:49.593Z,2.20
2018-06-28T19:46:17.210Z,2.70
2018-06-28T19:48:44.963Z,2.30
2018-06-28T19:51:18.427Z,2.40
2018-06-28T19:53:46.210Z,2.33
2018-06-28T19:56:13.837Z,2.47
2018-06-28T19:58:41.475Z,2.80
2018-06-28T20:01:14.884Z,2.60
2018-06-28T20:03:48.268Z,3.43
2018-06-28T20:06:15.944Z,3.23
2018-06-28T20:08:43.722Z,2.80
2018-06-28T20:11:11.420Z,2.63
2018-06-28T20:13:44.828Z,2.50
2018-06-28T20:16:18.303Z,2.90
2018-06-28T20:18:51.828Z,2.30
2018-06-28T20:21:19.700Z,2.33
2018-06-28T20:23:47.309Z,2.50
2018-06-28T20:26:20.755Z,2.60
2018-06-28T20:28:54.344Z,2.40
2018-06-28T20:32:25.830Z,2.10
2018-06-28T20:34:53.485Z,2.33
2018-06-28T20:37:21.136Z,2.20
2018-06-28T20:39:48.718Z,2.30
2018-06-28T20:42:16.450Z,2.17
2018-06-28T20:44:44.058Z,2.10
2018-06-28T20:47:11.685Z,2.30
2018-06-28T20:49:39.377Z,2.20
2018-06-28T20:52:07.001Z,2.20
2018-06-28T20:54:34.621Z,2.10
2018-06-28T20:57:02.282Z,2.20
2018-06-28T20:59:30.069Z,2.63
2018-06-28T21:01:57.673Z,2.40
2018-06-28T21:04:25.514Z,2.80
2018-06-28T21:06:53.077Z,3.00
2018-06-28T21:09:20.814Z,2.70
2018-06-28T21:11:48.398Z,2.17
2018-06-28T21:14:16.007Z,2.10
2018-06-28T21:16:43.665Z,2.33
2018-06-28T21:19:11.268Z,1.97
2018-06-28T21:21:38.924Z,2.10
2018-06-28T21:24:06.572Z,2.03
2018-06-28T21:26:34.354Z,1.80
2018-06-28T21:29:01.931Z,1.90
2018-06-28T21:31:30.008Z,2.10
2018-06-28T21:33:57.666Z,2.40
2018-06-28T21:36:25.258Z,2.30
2018-06-28T21:38:52.847Z,2.40
2018-06-28T21:41:20.503Z,2.00
2018-06-28T21:43:48.176Z,2.07
2018-06-28T21:46:15.754Z,2.53
2018-06-28T21:48:43.395Z,2.07
2018-06-28T21:51:11.017Z,2.23
2018-06-28T21:53:38.594Z,2.17
2018-06-28T21:56:06.185Z,2.13
2018-06-28T21:58:33.853Z,2.47
2018-06-28T22:01:01.609Z,1.83
2018-06-28T22:03:29.177Z,2.00
2018-06-28T22:05:56.780Z,1.90
2018-06-28T22:08:24.348Z,2.10
2018-06-28T22:10:51.923Z,1.83
2018-06-28T22:13:19.489Z,2.43
2018-06-28T22:15:47.142Z,1.97
2018-06-28T22:18:14.732Z,1.93
2018-06-28T22:20:42.306Z,1.73
2018-06-28T22:23:09.873Z,1.90
2018-06-28T22:25:37.684Z,2.27
2018-06-28T22:28:05.308Z,1.80
2018-06-28T22:30:32.889Z,2.00
2018-06-28T22:33:00.507Z,2.00
2018-06-28T22:35:28.082Z,1.90
2018-06-28T22:37:55.887Z,1.77
2018-06-28T22:40:23.470Z,1.87
2018-06-28T22:42:51.056Z,1.80
2018-06-28T22:45:18.676Z,1.60
2018-06-28T22:47:46.269Z,1.63
2018-06-28T22:50:13.864Z,2.20
2018-06-28T22:52:41.540Z,1.77
2018-06-28T22:55:09.334Z,1.97
2018-06-28T22:57:36.916Z,1.80
2018-06-28T23:00:06.269Z,1.87
2018-06-28T23:02:33.919Z,1.80
2018-06-28T23:05:01.543Z,1.83
2018-06-28T23:07:29.130Z,1.87
2018-06-28T23:09:56.823Z,1.73
2018-06-28T23:12:24.373Z,1.67
2018-06-28T23:14:52.477Z,1.90
2018-06-28T23:17:20.150Z,1.87
2018-06-28T23:19:47.841Z,1.90
2018-06-28T23:22:52.601Z,1.80
2018-06-28T23:25:20.865Z,1.77
2018-06-28T23:27:49.079Z,1.70
2018-06-28T23:30:17.201Z,1.77
2018-06-28T23:32:44.937Z,1.80
2018-06-28T23:35:12.504Z,1.67
2018-06-28T23:37:40.182Z,1.50
2018-06-28T23:40:07.860Z,1.43
2018-06-28T23:42:36.295Z,1.50
2018-06-28T23:45:04.973Z,1.60
2018-06-28T23:47:32.761Z,1.50
2018-06-28T23:50:00.563Z,1.27
2018-06-28T23:52:28.157Z,1.50
2018-06-28T23:54:55.881Z,1.30
2018-06-28T23:57:23.413Z,1.47
2018-06-28T23:59:51.068Z,1.53
